Aviation Digital Data Service (ADDS)

Output produced by METARs form (0724 UTC 01 June 2016)
found at http://aviationweather.gov/adds/metars/
 
KLFT 010653Z 00000KT 10SM CLR 24/22 A2991 RMK AO2 SLP127 T02390222